sensor_id;sensor_type;location;lat;lon;timestamp;pressure;altitude;pressure_sealevel;temperature;humidity
58690;BME280;44470;53.206;-6.106;2023-05-17T00:02:07;102902.06;;;19.52;57.31
58690;BME280;44470;53.206;-6.106;2023-05-17T00:04:33;102885.97;;;19.46;57.13
58690;BME280;44470;53.206;-6.106;2023-05-17T00:06:58;102895.84;;;19.52;57.26
58690;BME280;44470;53.206;-6.106;2023-05-17T00:09:24;102886.81;;;19.43;57.18
58690;BME280;44470;53.206;-6.106;2023-05-17T00:11:49;102885.91;;;19.43;57.03
58690;BME280;44470;53.206;-6.106;2023-05-17T00:14:15;102906.53;;;19.52;57.32
58690;BME280;44470;53.206;-6.106;2023-05-17T00:16:40;102907.41;;;19.52;56.75
58690;BME280;44470;53.206;-6.106;2023-05-17T00:19:06;102912.75;;;19.52;57.10
58690;BME280;44470;53.206;-6.106;2023-05-17T00:21:34;102903.78;;;19.45;57.29
58690;BME280;44470;53.206;-6.106;2023-05-17T00:24:17;102905.63;;;19.51;57.24
58690;BME280;44470;53.206;-6.106;2023-05-17T00:26:43;102893.97;;;19.44;56.92
58690;BME280;44470;53.206;-6.106;2023-05-17T00:29:08;102893.97;;;19.44;56.78
58690;BME280;44470;53.206;-6.106;2023-05-17T00:31:34;102898.47;;;19.50;56.88
58690;BME280;44470;53.206;-6.106;2023-05-17T00:33:59;102910.03;;;19.49;56.71
58690;BME280;44470;53.206;-6.106;2023-05-17T00:36:25;102910.03;;;19.49;56.88
58690;BME280;44470;53.206;-6.106;2023-05-17T00:38:50;102900.13;;;19.40;56.85
58690;BME280;44470;53.206;-6.106;2023-05-17T00:41:16;102908.28;;;19.50;57.02
58690;BME280;44470;53.206;-6.106;2023-05-17T00:43:42;102914.50;;;19.50;56.68
58690;BME280;44470;53.206;-6.106;2023-05-17T00:46:08;102905.56;;;19.48;57.12
58690;BME280;44470;53.206;-6.106;2023-05-17T00:48:34;102903.81;;;19.49;56.71
58690;BME280;44470;53.206;-6.106;2023-05-17T00:51:00;102875.09;;;19.35;57.08
58690;BME280;44470;53.206;-6.106;2023-05-17T00:53:26;102892.13;;;19.40;56.78
58690;BME280;44470;53.206;-6.106;2023-05-17T00:55:53;102908.25;;;19.48;56.81
58690;BME280;44470;53.206;-6.106;2023-05-17T00:58:20;102911.84;;;19.49;56.96
58690;BME280;44470;53.206;-6.106;2023-05-17T01:00:46;102911.84;;;19.49;56.69
58690;BME280;44470;53.206;-6.106;2023-05-17T01:03:12;102904.59;;;19.43;56.66
58690;BME280;44470;53.206;-6.106;2023-05-17T01:05:38;102915.34;;;19.46;56.88
58690;BME280;44470;53.206;-6.106;2023-05-17T01:08:03;102915.38;;;19.49;56.66
58690;BME280;44470;53.206;-6.106;2023-05-17T01:10:42;102912.66;;;19.46;56.86
58690;BME280;44470;53.206;-6.106;2023-05-17T01:13:13;102903.63;;;19.38;56.98
58690;BME280;44470;53.206;-6.106;2023-05-17T01:15:46;102910.84;;;19.43;56.99
58690;BME280;44470;53.206;-6.106;2023-05-17T01:18:33;102910.88;;;19.45;56.66
58690;BME280;44470;53.206;-6.106;2023-05-17T01:21:56;102917.13;;;19.47;56.47
58690;BME280;44470;53.206;-6.106;2023-05-17T01:24:08;102895.53;;;19.33;56.97
58690;BME280;44470;53.206;-6.106;2023-05-17T01:26:42;102914.41;;;19.44;56.90
58690;BME280;44470;53.206;-6.106;2023-05-17T01:29:11;102900.94;;;19.36;57.07
58690;BME280;44470;53.206;-6.106;2023-05-17T01:31:37;102906.41;;;19.44;57.11
58690;BME280;44470;53.206;-6.106;2023-05-17T01:34:07;102918.00;;;19.46;56.81
58690;BME280;44470;53.206;-6.106;2023-05-17T01:36:33;102910.88;;;19.45;57.02
58690;BME280;44470;53.206;-6.106;2023-05-17T01:39:00;102906.34;;;19.41;56.79
58690;BME280;44470;53.206;-6.106;2023-05-17T01:41:30;102911.72;;;19.42;56.65
58690;BME280;44470;53.206;-6.106;2023-05-17T01:44:07;102913.53;;;19.43;56.83
58690;BME280;44470;53.206;-6.106;2023-05-17T01:46:41;102903.69;;;19.41;56.68
58690;BME280;44470;53.206;-6.106;2023-05-17T01:51:36;102905.47;;;19.42;56.71
58690;BME280;44470;53.206;-6.106;2023-05-17T01:54:04;102903.69;;;19.41;56.70
58690;BME280;44470;53.206;-6.106;2023-05-17T01:56:42;102903.69;;;19.41;56.63
58690;BME280;44470;53.206;-6.106;2023-05-17T01:59:10;102909.03;;;19.41;56.61
58690;BME280;44470;53.206;-6.106;2023-05-17T02:01:36;102911.75;;;19.44;56.36
58690;BME280;44470;53.206;-6.106;2023-05-17T02:04:03;102901.00;;;19.41;56.48
58690;BME280;44470;53.206;-6.106;2023-05-17T02:06:30;102912.66;;;19.44;56.56
58690;BME280;44470;53.206;-6.106;2023-05-17T02:08:56;102907.28;;;19.43;56.27
58690;BME280;44470;53.206;-6.106;2023-05-17T02:11:23;102909.97;;;19.44;56.30
58690;BME280;44470;53.206;-6.106;2023-05-17T02:13:51;102901.00;;;19.41;56.43
58690;BME280;44470;53.206;-6.106;2023-05-17T02:16:16;102897.47;;;19.40;56.52
58690;BME280;44470;53.206;-6.106;2023-05-17T02:18:42;102887.56;;;19.35;56.49
58690;BME280;44470;53.206;-6.106;2023-05-17T02:21:07;102901.00;;;19.41;56.54
58690;BME280;44470;53.206;-6.106;2023-05-17T02:23:35;102910.84;;;19.43;56.45
58690;BME280;44470;53.206;-6.106;2023-05-17T02:26:00;102906.41;;;19.42;56.13
58690;BME280;44470;53.206;-6.106;2023-05-17T02:28:26;102914.41;;;19.44;56.86
58690;BME280;44470;53.206;-6.106;2023-05-17T02:30:51;102914.41;;;19.44;56.26
58690;BME280;44470;53.206;-6.106;2023-05-17T02:33:18;102900.09;;;19.39;56.24
58690;BME280;44470;53.206;-6.106;2023-05-17T02:35:44;102900.09;;;19.39;56.41
58690;BME280;44470;53.206;-6.106;2023-05-17T02:38:10;102904.59;;;19.41;56.33
58690;BME280;44470;53.206;-6.106;2023-05-17T02:40:35;102907.25;;;19.41;56.48
58690;BME280;44470;53.206;-6.106;2023-05-17T02:43:01;102905.47;;;19.42;56.53
58690;BME280;44470;53.206;-6.106;2023-05-17T02:45:27;102888.34;;;19.29;56.21
58690;BME280;44470;53.206;-6.106;2023-05-17T02:47:52;102900.09;;;19.39;56.27
58690;BME280;44470;53.206;-6.106;2023-05-17T02:50:18;102909.06;;;19.42;56.54
58690;BME280;44470;53.206;-6.106;2023-05-17T02:52:43;102897.47;;;19.40;56.41
58690;BME280;44470;53.206;-6.106;2023-05-17T02:55:09;102903.72;;;19.42;56.28
58690;BME280;44470;53.206;-6.106;2023-05-17T02:57:34;102883.97;;;19.33;56.39
58690;BME280;44470;53.206;-6.106;2023-05-17T03:00:00;102885.72;;;19.32;56.23
58690;BME280;44470;53.206;-6.106;2023-05-17T03:02:26;102893.78;;;19.34;56.12
58690;BME280;44470;53.206;-6.106;2023-05-17T03:04:52;102904.59;;;19.41;56.22
58690;BME280;44470;53.206;-6.106;2023-05-17T03:07:17;102896.44;;;19.34;56.20
58690;BME280;44470;53.206;-6.106;2023-05-17T03:09:43;102902.78;;;19.40;56.13
58690;BME280;44470;53.206;-6.106;2023-05-17T03:12:09;102889.34;;;19.36;56.29
58690;BME280;44470;53.206;-6.106;2023-05-17T03:14:34;102892.13;;;19.42;56.22
58690;BME280;44470;53.206;-6.106;2023-05-17T03:17:00;102892.94;;;19.38;56.32
58690;BME280;44470;53.206;-6.106;2023-05-17T03:19:26;102898.34;;;19.41;56.25
58690;BME280;44470;53.206;-6.106;2023-05-17T03:21:52;102868.78;;;19.30;56.30
58690;BME280;44470;53.206;-6.106;2023-05-17T03:24:18;102887.66;;;19.41;56.21
58690;BME280;44470;53.206;-6.106;2023-05-17T03:26:43;102888.53;;;19.38;56.38
58690;BME280;44470;53.206;-6.106;2023-05-17T03:29:10;102892.13;;;19.40;56.17
58690;BME280;44470;53.206;-6.106;2023-05-17T03:31:38;102888.53;;;19.40;56.26
58690;BME280;44470;53.206;-6.106;2023-05-17T03:34:03;102884.94;;;19.38;55.97
58690;BME280;44470;53.206;-6.106;2023-05-17T03:36:29;102876.88;;;19.35;56.12
58690;BME280;44470;53.206;-6.106;2023-05-17T03:38:56;102889.41;;;19.39;56.54
58690;BME280;44470;53.206;-6.106;2023-05-17T03:41:21;102880.38;;;19.30;55.95
58690;BME280;44470;53.206;-6.106;2023-05-17T03:43:47;102892.94;;;19.38;56.36
58690;BME280;44470;53.206;-6.106;2023-05-17T03:46:14;102893.81;;;19.37;55.99
58690;BME280;44470;53.206;-6.106;2023-05-17T03:48:40;102900.09;;;19.39;56.29
58690;BME280;44470;53.206;-6.106;2023-05-17T03:51:05;102901.84;;;19.37;56.25
58690;BME280;44470;53.206;-6.106;2023-05-17T03:53:32;102874.06;;;19.25;56.07
58690;BME280;44470;53.206;-6.106;2023-05-17T03:55:57;102900.97;;;19.38;56.08
58690;BME280;44470;53.206;-6.106;2023-05-17T03:58:23;102892.91;;;19.35;55.99
58690;BME280;44470;53.206;-6.106;2023-05-17T04:00:48;102896.50;;;19.37;55.94
58690;BME280;44470;53.206;-6.106;2023-05-17T04:03:16;102897.41;;;19.37;55.94
58690;BME280;44470;53.206;-6.106;2023-05-17T04:05:42;102896.44;;;19.34;55.99
58690;BME280;44470;53.206;-6.106;2023-05-17T04:08:10;102906.31;;;19.38;56.18
58690;BME280;44470;53.206;-6.106;2023-05-17T04:10:37;102900.94;;;19.36;56.04
58690;BME280;44470;53.206;-6.106;2023-05-17T04:13:09;102901.84;;;19.37;55.89
58690;BME280;44470;53.206;-6.106;2023-05-17T04:15:36;102901.78;;;19.35;56.34
58690;BME280;44470;53.206;-6.106;2023-05-17T04:18:03;102899.16;;;19.37;56.24
58690;BME280;44470;53.206;-6.106;2023-05-17T04:20:29;102901.84;;;19.37;56.36
58690;BME280;44470;53.206;-6.106;2023-05-17T04:22:54;102889.31;;;19.33;55.90
58690;BME280;44470;53.206;-6.106;2023-05-17T04:25:20;102905.38;;;19.36;56.11
58690;BME280;44470;53.206;-6.106;2023-05-17T04:27:48;102901.78;;;19.35;56.07
58690;BME280;44470;53.206;-6.106;2023-05-17T04:30:13;102903.56;;;19.35;56.37
58690;BME280;44470;53.206;-6.106;2023-05-17T04:32:39;102891.97;;;19.34;56.04
58690;BME280;44470;53.206;-6.106;2023-05-17T04:35:05;102891.09;;;19.35;55.86
58690;BME280;44470;53.206;-6.106;2023-05-17T04:37:31;102874.06;;;19.27;56.08
58690;BME280;44470;53.206;-6.106;2023-05-17T04:40:02;102886.66;;;19.34;55.88
58690;BME280;44470;53.206;-6.106;2023-05-17T04:42:30;102889.31;;;19.33;55.95
58690;BME280;44470;53.206;-6.106;2023-05-17T04:44:57;102894.69;;;19.36;55.82
58690;BME280;44470;53.206;-6.106;2023-05-17T04:47:23;102893.78;;;19.34;55.88
58690;BME280;44470;53.206;-6.106;2023-05-17T04:49:50;102896.50;;;19.37;55.99
58690;BME280;44470;53.206;-6.106;2023-05-17T04:52:16;102895.56;;;19.35;55.63
58690;BME280;44470;53.206;-6.106;2023-05-17T04:54:42;102893.78;;;19.35;55.56
58690;BME280;44470;53.206;-6.106;2023-05-17T04:57:14;102892.91;;;19.35;55.89
58690;BME280;44470;53.206;-6.106;2023-05-17T04:59:53;102893.72;;;19.32;55.85
58690;BME280;44470;53.206;-6.106;2023-05-17T05:02:19;102894.66;;;19.33;55.53
58690;BME280;44470;53.206;-6.106;2023-05-17T05:04:45;102901.78;;;19.34;55.49
58690;BME280;44470;53.206;-6.106;2023-05-17T05:07:11;102901.75;;;19.32;55.58
58690;BME280;44470;53.206;-6.106;2023-05-17T05:09:37;102899.94;;;19.29;55.60
58690;BME280;44470;53.206;-6.106;2023-05-17T05:12:04;102908.91;;;19.35;55.24
58690;BME280;44470;53.206;-6.106;2023-05-17T05:14:30;102910.72;;;19.36;55.37
58690;BME280;44470;53.206;-6.106;2023-05-17T05:16:56;102901.78;;;19.34;55.48
58690;BME280;44470;53.206;-6.106;2023-05-17T05:19:22;102914.25;;;19.35;55.09
58690;BME280;44470;53.206;-6.106;2023-05-17T05:21:48;102916.00;;;19.33;55.33
58690;BME280;44470;53.206;-6.106;2023-05-17T05:24:13;102925.81;;;19.35;55.36
58690;BME280;44470;53.206;-6.106;2023-05-17T05:26:39;102922.31;;;19.36;55.50
58690;BME280;44470;53.206;-6.106;2023-05-17T05:29:05;102916.00;;;19.33;55.36
58690;BME280;44470;53.206;-6.106;2023-05-17T05:31:31;102909.69;;;19.29;55.52
58690;BME280;44470;53.206;-6.106;2023-05-17T05:33:59;102920.47;;;19.34;55.25
58690;BME280;44470;53.206;-6.106;2023-05-17T05:36:25;102924.94;;;19.35;55.50
58690;BME280;44470;53.206;-6.106;2023-05-17T05:38:51;102907.03;;;19.27;55.48
58690;BME280;44470;53.206;-6.106;2023-05-17T05:41:19;102924.06;;;19.36;55.50
58690;BME280;44470;53.206;-6.106;2023-05-17T05:43:45;102928.47;;;19.34;55.34
58690;BME280;44470;53.206;-6.106;2023-05-17T05:46:11;102930.19;;;19.28;55.44
58690;BME280;44470;53.206;-6.106;2023-05-17T05:48:38;102937.31;;;19.31;55.43
58690;BME280;44470;53.206;-6.106;2023-05-17T05:51:06;102944.56;;;19.37;55.24
58690;BME280;44470;53.206;-6.106;2023-05-17T05:53:32;102938.25;;;19.31;55.32
58690;BME280;44470;53.206;-6.106;2023-05-17T05:55:58;102947.19;;;19.35;55.06
58690;BME280;44470;53.206;-6.106;2023-05-17T05:58:25;102941.75;;;19.29;55.20
58690;BME280;44470;53.206;-6.106;2023-05-17T06:00:51;102953.38;;;19.33;55.27
58690;BME280;44470;53.206;-6.106;2023-05-17T06:03:16;102960.53;;;19.34;55.49
58690;BME280;44470;53.206;-6.106;2023-05-17T06:05:42;102965.88;;;19.34;55.42
58690;BME280;44470;53.206;-6.106;2023-05-17T06:08:07;102978.38;;;19.36;55.46
58690;BME280;44470;53.206;-6.106;2023-05-17T06:10:33;102958.63;;;19.26;55.50
58690;BME280;44470;53.206;-6.106;2023-05-17T06:12:59;102974.81;;;19.36;55.37
58690;BME280;44470;53.206;-6.106;2023-05-17T06:15:25;102967.59;;;19.31;55.22
58690;BME280;44470;53.206;-6.106;2023-05-17T06:17:51;102965.91;;;19.37;55.23
58690;BME280;44470;53.206;-6.106;2023-05-17T06:20:17;102965.88;;;19.34;55.50
58690;BME280;44470;53.206;-6.106;2023-05-17T06:22:43;102981.06;;;19.36;55.18
58690;BME280;44470;53.206;-6.106;2023-05-17T06:25:08;102985.47;;;19.36;55.47
58690;BME280;44470;53.206;-6.106;2023-05-17T06:27:35;102985.47;;;19.36;55.65
58690;BME280;44470;53.206;-6.106;2023-05-17T06:30:01;102981.00;;;19.35;55.50
58690;BME280;44470;53.206;-6.106;2023-05-17T06:32:29;102993.53;;;19.37;55.62
58690;BME280;44470;53.206;-6.106;2023-05-17T06:34:54;102979.28;;;19.37;55.24
58690;BME280;44470;53.206;-6.106;2023-05-17T06:37:20;102981.94;;;19.37;55.37
58690;BME280;44470;53.206;-6.106;2023-05-17T06:39:46;102985.47;;;19.36;55.42
58690;BME280;44470;53.206;-6.106;2023-05-17T06:42:11;102982.78;;;19.34;55.41
58690;BME280;44470;53.206;-6.106;2023-05-17T06:44:37;102987.28;;;19.37;55.67
58690;BME280;44470;53.206;-6.106;2023-05-17T06:47:03;102987.28;;;19.37;55.75
58690;BME280;44470;53.206;-6.106;2023-05-17T06:49:28;102983.69;;;19.35;55.56
58690;BME280;44470;53.206;-6.106;2023-05-17T06:51:54;102992.63;;;19.37;55.68
58690;BME280;44470;53.206;-6.106;2023-05-17T06:54:21;102986.41;;;19.38;56.13
58690;BME280;44470;53.206;-6.106;2023-05-17T06:56:47;102991.84;;;19.42;55.78
58690;BME280;44470;53.206;-6.106;2023-05-17T06:59:12;102992.66;;;19.38;55.75
58690;BME280;44470;53.206;-6.106;2023-05-17T07:01:38;102979.22;;;19.34;55.41
58690;BME280;44470;53.206;-6.106;2023-05-17T07:04:04;102990.81;;;19.36;55.60
58690;BME280;44470;53.206;-6.106;2023-05-17T07:06:29;102990.88;;;19.39;55.86
58690;BME280;44470;53.206;-6.106;2023-05-17T07:08:55;102961.22;;;19.23;55.48
58690;BME280;44470;53.206;-6.106;2023-05-17T07:11:21;102993.59;;;19.40;55.83
58690;BME280;44470;53.206;-6.106;2023-05-17T07:13:46;102988.25;;;19.40;55.19
58690;BME280;44470;53.206;-6.106;2023-05-17T07:16:13;102983.75;;;19.38;55.76
58690;BME280;44470;53.206;-6.106;2023-05-17T07:18:39;102992.63;;;19.37;55.65
58690;BME280;44470;53.206;-6.106;2023-05-17T07:21:04;102984.56;;;19.34;55.89
58690;BME280;44470;53.206;-6.106;2023-05-17T07:23:30;102986.41;;;19.38;55.51
58690;BME280;44470;53.206;-6.106;2023-05-17T07:25:55;102978.34;;;19.35;55.72
58690;BME280;44470;53.206;-6.106;2023-05-17T07:28:21;102984.66;;;19.38;55.68
58690;BME280;44470;53.206;-6.106;2023-05-17T07:30:46;102985.53;;;19.37;55.80
58690;BME280;44470;53.206;-6.106;2023-05-17T07:33:12;102974.84;;;19.39;55.72
58690;BME280;44470;53.206;-6.106;2023-05-17T07:35:40;102974.84;;;19.39;55.48
58690;BME280;44470;53.206;-6.106;2023-05-17T07:38:06;102954.16;;;19.25;55.41
58690;BME280;44470;53.206;-6.106;2023-05-17T07:40:31;102980.19;;;19.37;55.65
58690;BME280;44470;53.206;-6.106;2023-05-17T07:42:57;102973.00;;;19.35;55.33
58690;BME280;44470;53.206;-6.106;2023-05-17T07:45:22;102969.41;;;19.34;55.54
58690;BME280;44470;53.206;-6.106;2023-05-17T07:47:48;102967.59;;;19.31;55.34
58690;BME280;44470;53.206;-6.106;2023-05-17T07:50:13;102976.66;;;19.40;55.37
58690;BME280;44470;53.206;-6.106;2023-05-17T07:52:39;102986.44;;;19.39;55.14
58690;BME280;44470;53.206;-6.106;2023-05-17T07:55:05;102965.75;;;19.27;55.12
58690;BME280;44470;53.206;-6.106;2023-05-17T07:57:30;102984.66;;;19.40;55.20
58690;BME280;44470;53.206;-6.106;2023-05-17T07:59:56;102972.94;;;19.31;55.42
58690;BME280;44470;53.206;-6.106;2023-05-17T08:02:21;102970.28;;;19.33;55.27
58690;BME280;44470;53.206;-6.106;2023-05-17T08:04:47;102988.25;;;19.42;55.12
58690;BME280;44470;53.206;-6.106;2023-05-17T08:07:12;102990.06;;;19.43;55.67
58690;BME280;44470;53.206;-6.106;2023-05-17T08:09:38;102984.72;;;19.43;55.70
58690;BME280;44470;53.206;-6.106;2023-05-17T08:12:04;102986.50;;;19.44;55.71
58690;BME280;44470;53.206;-6.106;2023-05-17T08:14:30;102959.59;;;19.33;55.53
58690;BME280;44470;53.206;-6.106;2023-05-17T08:16:55;102975.78;;;19.39;55.90
58690;BME280;44470;53.206;-6.106;2023-05-17T08:19:21;102964.22;;;19.42;55.90
58690;BME280;44470;53.206;-6.106;2023-05-17T08:21:47;102965.09;;;19.41;55.92
58690;BME280;44470;53.206;-6.106;2023-05-17T08:24:13;102973.16;;;19.44;55.89
58690;BME280;44470;53.206;-6.106;2023-05-17T08:26:39;102969.56;;;19.42;55.86
58690;BME280;44470;53.206;-6.106;2023-05-17T08:29:04;102965.88;;;19.34;56.01
58690;BME280;44470;53.206;-6.106;2023-05-17T08:31:31;102952.56;;;19.37;56.11
58690;BME280;44470;53.206;-6.106;2023-05-17T08:33:56;102968.75;;;19.46;56.22
58690;BME280;44470;53.206;-6.106;2023-05-17T08:36:22;102949.03;;;19.38;56.19
58690;BME280;44470;53.206;-6.106;2023-05-17T08:38:48;102967.88;;;19.47;56.17
58690;BME280;44470;53.206;-6.106;2023-05-17T08:41:13;102954.47;;;19.44;56.27
58690;BME280;44470;53.206;-6.106;2023-05-17T08:43:39;102949.94;;;19.38;56.41
58690;BME280;44470;53.206;-6.106;2023-05-17T08:46:06;102950.03;;;19.44;56.36
58690;BME280;44470;53.206;-6.106;2023-05-17T08:48:34;102965.25;;;19.49;56.38
58690;BME280;44470;53.206;-6.106;2023-05-17T08:51:06;102965.19;;;19.47;56.57
58690;BME280;44470;53.206;-6.106;2023-05-17T08:53:32;102946.41;;;19.41;56.75
58690;BME280;44470;53.206;-6.106;2023-05-17T08:56:00;102967.03;;;19.50;56.68
58690;BME280;44470;53.206;-6.106;2023-05-17T08:58:29;102971.47;;;19.49;56.81
58690;BME280;44470;53.206;-6.106;2023-05-17T09:00:57;102968.84;;;19.52;56.52
58690;BME280;44470;53.206;-6.106;2023-05-17T09:03:23;102964.44;;;19.54;56.61
58690;BME280;44470;53.206;-6.106;2023-05-17T09:05:52;102961.72;;;19.51;56.59
58690;BME280;44470;53.206;-6.106;2023-05-17T09:08:21;102967.06;;;19.51;56.65
58690;BME280;44470;53.206;-6.106;2023-05-17T09:10:48;102958.94;;;19.45;56.50
58690;BME280;44470;53.206;-6.106;2023-05-17T09:13:14;102964.38;;;19.51;56.39
58690;BME280;44470;53.206;-6.106;2023-05-17T09:15:45;102962.59;;;19.50;56.74
58690;BME280;44470;53.206;-6.106;2023-05-17T09:18:12;102952.66;;;19.43;56.68
58690;BME280;44470;53.206;-6.106;2023-05-17T09:20:38;102948.19;;;19.42;56.54
58690;BME280;44470;53.206;-6.106;2023-05-17T09:23:10;102951.88;;;19.49;56.91
58690;BME280;44470;53.206;-6.106;2023-05-17T09:25:37;102960.84;;;19.52;56.72
58690;BME280;44470;53.206;-6.106;2023-05-17T09:28:06;102957.25;;;19.50;56.72
58690;BME280;44470;53.206;-6.106;2023-05-17T09:30:33;102958.16;;;19.52;56.71
58690;BME280;44470;53.206;-6.106;2023-05-17T09:33:09;102965.31;;;19.53;56.59
58690;BME280;44470;53.206;-6.106;2023-05-17T09:35:36;102960.84;;;19.52;56.83
58690;BME280;44470;53.206;-6.106;2023-05-17T09:38:14;102962.63;;;19.53;56.62
58690;BME280;44470;53.206;-6.106;2023-05-17T09:40:44;102958.16;;;19.52;56.73
58690;BME280;44470;53.206;-6.106;2023-05-17T09:43:12;102956.31;;;19.48;56.91
58690;BME280;44470;53.206;-6.106;2023-05-17T09:45:39;102951.03;;;19.50;56.81
58690;BME280;44470;53.206;-6.106;2023-05-17T09:50:46;102948.31;;;19.48;56.96
58690;BME280;44470;53.206;-6.106;2023-05-17T09:53:28;102958.13;;;19.49;57.05
58690;BME280;44470;53.206;-6.106;2023-05-17T09:55:59;102959.03;;;19.50;56.89
58690;BME280;44470;53.206;-6.106;2023-05-17T09:58:26;102966.19;;;19.52;56.93
58690;BME280;44470;53.206;-6.106;2023-05-17T10:00:59;102967.97;;;19.53;57.05
58690;BME280;44470;53.206;-6.106;2023-05-17T10:03:29;102968.91;;;19.54;57.02
58690;BME280;44470;53.206;-6.106;2023-05-17T10:05:55;102950.03;;;19.44;56.69
58690;BME280;44470;53.206;-6.106;2023-05-17T10:08:22;102967.09;;;19.53;57.15
58690;BME280;44470;53.206;-6.106;2023-05-17T10:10:54;102960.88;;;19.54;57.01
58690;BME280;44470;53.206;-6.106;2023-05-17T10:13:28;102958.22;;;19.54;56.95
58690;BME280;44470;53.206;-6.106;2023-05-17T10:15:54;102954.56;;;19.50;56.82
58690;BME280;44470;53.206;-6.106;2023-05-17T10:18:20;102964.44;;;19.54;56.77
58690;BME280;44470;53.206;-6.106;2023-05-17T10:20:49;102965.31;;;19.53;57.12
58690;BME280;44470;53.206;-6.106;2023-05-17T10:23:16;102958.25;;;19.57;56.62
58690;BME280;44470;53.206;-6.106;2023-05-17T10:25:42;102964.47;;;19.57;56.84
58690;BME280;44470;53.206;-6.106;2023-05-17T10:28:09;102969.03;;;19.63;57.21
58690;BME280;44470;53.206;-6.106;2023-05-17T10:30:36;102952.88;;;19.55;56.25
58690;BME280;44470;53.206;-6.106;2023-05-17T10:33:02;102967.16;;;19.57;55.30
58690;BME280;44470;53.206;-6.106;2023-05-17T10:35:29;102945.63;;;19.48;55.83
58690;BME280;44470;53.206;-6.106;2023-05-17T10:37:57;102934.94;;;19.48;55.19
58690;BME280;44470;53.206;-6.106;2023-05-17T10:40:22;102946.56;;;19.50;55.56
58690;BME280;44470;53.206;-6.106;2023-05-17T10:42:50;102942.97;;;19.48;56.25
58690;BME280;44470;53.206;-6.106;2023-05-17T10:45:21;102943.88;;;19.49;55.00
58690;BME280;44470;53.206;-6.106;2023-05-17T10:47:50;102947.34;;;19.43;55.18
58690;BME280;44470;53.206;-6.106;2023-05-17T10:50:21;102949.22;;;19.49;54.74
58690;BME280;44470;53.206;-6.106;2023-05-17T10:52:48;102947.38;;;19.44;54.65
58690;BME280;44470;53.206;-6.106;2023-05-17T10:55:18;102948.31;;;19.48;54.60
58690;BME280;44470;53.206;-6.106;2023-05-17T10:58:17;102937.47;;;19.39;54.36
58690;BME280;44470;53.206;-6.106;2023-05-17T11:00:50;102939.25;;;19.38;53.90
58690;BME280;44470;53.206;-6.106;2023-05-17T11:03:19;102946.41;;;19.39;53.52
58690;BME280;44470;53.206;-6.106;2023-05-17T11:08:31;102940.13;;;19.37;54.02
58690;BME280;44470;53.206;-6.106;2023-05-17T11:11:23;102939.22;;;19.37;53.82
58690;BME280;44470;53.206;-6.106;2023-05-17T11:13:51;102936.59;;;19.38;53.41
58690;BME280;44470;53.206;-6.106;2023-05-17T11:16:20;102920.44;;;19.32;54.16
58690;BME280;44470;53.206;-6.106;2023-05-17T11:18:47;102926.84;;;19.42;53.58
58690;BME280;44470;53.206;-6.106;2023-05-17T11:21:13;102936.63;;;19.41;54.01
58690;BME280;44470;53.206;-6.106;2023-05-17T11:23:45;102938.41;;;19.41;54.09
58690;BME280;44470;53.206;-6.106;2023-05-17T11:26:15;102927.75;;;19.42;54.01
58690;BME280;44470;53.206;-6.106;2023-05-17T11:28:41;102922.38;;;19.41;54.13
58690;BME280;44470;53.206;-6.106;2023-05-17T11:31:07;102930.38;;;19.39;54.50
58690;BME280;44470;53.206;-6.106;2023-05-17T11:33:52;102929.50;;;19.42;54.74
58690;BME280;44470;53.206;-6.106;2023-05-17T11:36:19;102935.78;;;19.44;54.63
58690;BME280;44470;53.206;-6.106;2023-05-17T11:39:09;102933.09;;;19.44;55.29
58690;BME280;44470;53.206;-6.106;2023-05-17T11:41:38;102937.56;;;19.45;54.48
58690;BME280;44470;53.206;-6.106;2023-05-17T11:44:07;102932.22;;;19.45;54.89
58690;BME280;44470;53.206;-6.106;2023-05-17T11:46:34;102930.34;;;19.38;54.87
58690;BME280;44470;53.206;-6.106;2023-05-17T11:49:01;102926.78;;;19.39;55.05
58690;BME280;44470;53.206;-6.106;2023-05-17T11:51:26;102911.53;;;19.33;55.55
58690;BME280;44470;53.206;-6.106;2023-05-17T11:54:02;102936.69;;;19.46;55.22
58690;BME280;44470;53.206;-6.106;2023-05-17T11:56:34;102938.50;;;19.45;55.50
58690;BME280;44470;53.206;-6.106;2023-05-17T11:59:03;102937.56;;;19.45;55.40
58690;BME280;44470;53.206;-6.106;2023-05-17T12:01:41;102927.81;;;19.45;55.90
58690;BME280;44470;53.206;-6.106;2023-05-17T12:04:06;102928.69;;;19.46;55.42
58690;BME280;44470;53.206;-6.106;2023-05-17T12:06:32;102927.81;;;19.47;55.67
58690;BME280;44470;53.206;-6.106;2023-05-17T12:08:59;102925.16;;;19.47;55.74
58690;BME280;44470;53.206;-6.106;2023-05-17T12:11:26;102932.28;;;19.48;55.51
58690;BME280;44470;53.206;-6.106;2023-05-17T12:13:52;102909.03;;;19.41;55.31
58690;BME280;44470;53.206;-6.106;2023-05-17T12:16:20;102917.19;;;19.50;55.93
58690;BME280;44470;53.206;-6.106;2023-05-17T12:18:48;102901.94;;;19.43;55.55
58690;BME280;44470;53.206;-6.106;2023-05-17T12:21:15;102912.75;;;19.52;56.14
58690;BME280;44470;53.206;-6.106;2023-05-17T12:23:44;102919.91;;;19.53;55.56
58690;BME280;44470;53.206;-6.106;2023-05-17T12:26:15;102919.03;;;19.54;56.06
58690;BME280;44470;53.206;-6.106;2023-05-17T12:29:02;102906.53;;;19.52;56.08
58690;BME280;44470;53.206;-6.106;2023-05-17T12:31:37;102911.94;;;19.55;56.41
58690;BME280;44470;53.206;-6.106;2023-05-17T12:34:07;102902.94;;;19.50;56.08
58690;BME280;44470;53.206;-6.106;2023-05-17T12:36:38;102905.63;;;19.51;56.13
58690;BME280;44470;53.206;-6.106;2023-05-17T12:39:05;102891.34;;;19.49;56.39
58690;BME280;44470;53.206;-6.106;2023-05-17T12:41:35;102909.22;;;19.53;56.43
58690;BME280;44470;53.206;-6.106;2023-05-17T12:44:00;102897.66;;;19.54;56.00
58690;BME280;44470;53.206;-6.106;2023-05-17T12:46:26;102886.94;;;19.51;56.31
58690;BME280;44470;53.206;-6.106;2023-05-17T12:48:53;102906.59;;;19.55;56.26
58690;BME280;44470;53.206;-6.106;2023-05-17T12:51:22;102890.53;;;19.53;56.48